Time;durP1;ratioP1;P1;durP2;ratioP2;P2;SDS_P1;SDS_P2;PMS_P1;PMS_P2;Temp;Humidity;BMP_temperature;BMP_pressure;BME280_temperature;BME280_humidity;BME280_pressure;Samples;Min_cycle;Max_cycle;Signal;HPM_P1;HPM_P2
2023/10/27 00:01:34;;;;;;;8.88;2.75;;;13.70;99.90;;;;;;935149;151;27360;-76
2023/10/27 00:04:00;;;;;;;4.47;2.22;;;13.70;99.90;;;;;;936450;151;27310;-76
2023/10/27 00:06:27;;;;;;;4.95;2.42;;;13.70;99.90;;;;;;935113;151;27377;-75
2023/10/27 00:08:54;;;;;;;5.95;2.12;;;13.70;99.90;;;;;;934161;151;27337;-76
2023/10/27 00:11:20;;;;;;;3.75;2.40;;;13.70;99.90;;;;;;934585;151;27307;-75
2023/10/27 00:13:47;;;;;;;6.60;2.17;;;13.70;99.90;;;;;;938716;148;27525;-75
2023/10/27 00:16:14;;;;;;;5.73;2.20;;;13.70;99.90;;;;;;946282;148;27961;-76
2023/10/27 00:18:40;;;;;;;5.28;2.37;;;13.70;99.90;;;;;;946910;148;27321;-76
2023/10/27 00:21:07;;;;;;;3.63;2.10;;;13.70;99.90;;;;;;946315;148;27265;-76
2023/10/27 00:23:33;;;;;;;5.85;2.12;;;13.70;99.90;;;;;;949922;148;27290;-76
2023/10/27 00:26:00;;;;;;;4.73;2.07;;;13.70;99.90;;;;;;932457;151;27329;-79
2023/10/27 00:28:26;;;;;;;3.50;2.22;;;13.70;99.90;;;;;;932623;151;27391;-78
2023/10/27 00:30:53;;;;;;;6.75;2.25;;;13.80;99.90;;;;;;932949;151;27351;-78
2023/10/27 00:33:19;;;;;;;5.40;2.30;;;13.80;99.90;;;;;;950195;148;27406;-76
2023/10/27 00:35:46;;;;;;;4.55;2.00;;;13.80;99.90;;;;;;948194;149;27390;-76
2023/10/27 00:38:13;;;;;;;5.35;2.00;;;13.80;99.90;;;;;;947400;149;27401;-76
2023/10/27 00:40:39;;;;;;;4.83;2.22;;;13.80;99.90;;;;;;948088;149;27296;-77
2023/10/27 00:43:06;;;;;;;5.47;2.27;;;13.80;99.90;;;;;;924202;151;27891;-76
2023/10/27 00:45:32;;;;;;;4.25;2.15;;;13.80;99.90;;;;;;932080;151;27342;-77
2023/10/27 00:47:59;;;;;;;4.80;1.87;;;13.80;99.90;;;;;;948423;149;27435;-76
2023/10/27 00:50:26;;;;;;;5.30;1.95;;;13.80;99.90;;;;;;932311;151;27317;-76
2023/10/27 00:52:52;;;;;;;6.57;2.10;;;13.80;99.90;;;;;;924370;151;27361;-77
2023/10/27 00:55:19;;;;;;;8.48;2.65;;;13.80;99.90;;;;;;946846;148;27364;-76
2023/10/27 00:57:45;;;;;;;5.85;2.17;;;13.70;99.90;;;;;;922890;151;27436;-76
2023/10/27 01:00:12;;;;;;;5.72;2.50;;;13.70;99.90;;;;;;924755;152;27334;-76
2023/10/27 01:02:39;;;;;;;5.00;2.00;;;13.60;99.90;;;;;;947460;149;27645;-76
2023/10/27 01:05:05;;;;;;;5.90;2.70;;;13.60;99.90;;;;;;923134;151;27347;-76
2023/10/27 01:07:32;;;;;;;8.53;2.90;;;13.50;99.90;;;;;;932095;151;27392;-76
2023/10/27 01:09:58;;;;;;;5.93;2.30;;;13.50;99.90;;;;;;931669;150;27385;-76
2023/10/27 01:12:25;;;;;;;6.37;2.50;;;13.40;99.90;;;;;;933380;151;27325;-77
2023/10/27 01:14:52;;;;;;;6.53;2.67;;;13.40;99.90;;;;;;925057;151;27439;-76
2023/10/27 01:17:18;;;;;;;3.72;2.20;;;13.40;99.90;;;;;;918742;152;27358;-76
2023/10/27 01:19:45;;;;;;;6.67;2.80;;;13.30;99.90;;;;;;936052;149;27305;-77
2023/10/27 01:22:15;;;;;;;4.60;2.45;;;13.30;99.90;;;;;;934911;148;27264;-76
2023/10/27 01:24:41;;;;;;;5.60;2.60;;;13.30;99.90;;;;;;911642;152;27368;-77
2023/10/27 01:27:07;;;;;;;6.13;1.97;;;13.30;99.90;;;;;;917916;152;27386;-76
2023/10/27 01:29:34;;;;;;;4.05;2.27;;;13.30;99.90;;;;;;921204;152;27474;-76
2023/10/27 01:32:01;;;;;;;4.13;1.83;;;13.30;99.90;;;;;;936818;149;27323;-76
2023/10/27 01:34:27;;;;;;;4.05;2.22;;;13.30;99.90;;;;;;936333;149;27405;-77
2023/10/27 01:36:54;;;;;;;5.53;1.95;;;13.30;99.90;;;;;;932325;149;27463;-76
2023/10/27 01:39:21;;;;;;;5.37;2.20;;;13.30;99.90;;;;;;935787;149;27389;-76
2023/10/27 01:41:47;;;;;;;4.72;1.90;;;13.30;99.90;;;;;;920846;151;27472;-76
2023/10/27 01:44:14;;;;;;;3.97;1.97;;;13.30;99.90;;;;;;919527;152;27392;-73
2023/10/27 01:46:40;;;;;;;3.80;2.20;;;13.20;99.90;;;;;;930036;152;27398;-74
2023/10/27 01:49:07;;;;;;;3.70;1.87;;;13.20;99.90;;;;;;904982;153;27350;-73
2023/10/27 01:51:33;;;;;;;6.17;2.02;;;13.20;99.90;;;;;;935458;149;27349;-73
2023/10/27 01:54:00;;;;;;;4.70;2.10;;;13.20;99.90;;;;;;911934;152;27343;-78
2023/10/27 01:56:26;;;;;;;3.50;2.22;;;13.20;99.90;;;;;;932457;149;27474;-78
2023/10/27 01:58:53;;;;;;;5.08;3.22;;;13.20;99.90;;;;;;936554;149;27443;-78
2023/10/27 02:01:20;;;;;;;5.80;2.37;;;13.10;99.90;;;;;;937458;149;27312;-78
2023/10/27 02:03:46;;;;;;;2.57;2.00;;;13.10;99.90;;;;;;935987;150;27782;-75
2023/10/27 02:06:13;;;;;;;5.07;2.67;;;13.10;99.90;;;;;;936276;149;27459;-78
2023/10/27 02:08:39;;;;;;;6.23;2.70;;;13.10;99.90;;;;;;936688;150;27299;-78
2023/10/27 02:11:06;;;;;;;5.90;2.05;;;13.00;99.90;;;;;;911120;152;27332;-78
2023/10/27 02:13:33;;;;;;;6.53;2.58;;;13.10;99.90;;;;;;935602;149;27353;-78
2023/10/27 02:15:59;;;;;;;3.72;2.00;;;13.00;99.90;;;;;;944312;149;27348;-79
2023/10/27 02:18:26;;;;;;;4.57;1.97;;;13.00;99.90;;;;;;948950;148;27321;-77
2023/10/27 02:20:52;;;;;;;4.70;2.07;;;13.00;99.90;;;;;;948462;148;27753;-78
2023/10/27 02:23:19;;;;;;;8.40;2.27;;;12.90;99.90;;;;;;949321;148;27438;-78
2023/10/27 02:25:46;;;;;;;3.85;2.02;;;12.90;99.90;;;;;;946518;148;27372;-75
2023/10/27 02:28:12;;;;;;;3.97;2.40;;;12.90;99.90;;;;;;930639;151;27377;-79
2023/10/27 02:30:39;;;;;;;6.23;2.40;;;12.90;99.90;;;;;;949042;149;27352;-79
2023/10/27 02:33:05;;;;;;;5.70;2.10;;;12.90;99.90;;;;;;922557;151;27452;-79
2023/10/27 02:35:32;;;;;;;3.37;1.80;;;12.90;99.90;;;;;;931314;151;27383;-78
2023/10/27 02:37:58;;;;;;;6.00;2.20;;;12.80;99.90;;;;;;947496;148;27449;-75
2023/10/27 02:40:25;;;;;;;4.53;1.90;;;12.80;99.90;;;;;;948971;148;27403;-77
2023/10/27 02:42:52;;;;;;;4.97;2.63;;;12.80;99.90;;;;;;933808;151;27437;-78
2023/10/27 02:45:18;;;;;;;3.73;2.27;;;12.70;99.90;;;;;;931711;151;27341;-79
2023/10/27 02:47:45;;;;;;;4.10;2.43;;;12.70;99.90;;;;;;934022;151;27446;-79
2023/10/27 02:50:11;;;;;;;3.58;2.20;;;12.70;99.90;;;;;;935363;151;27408;-78
2023/10/27 02:52:38;;;;;;;5.80;2.00;;;12.70;99.90;;;;;;948647;149;27398;-77
2023/10/27 02:55:05;;;;;;;3.90;2.30;;;12.60;99.90;;;;;;950235;148;27711;-76
2023/10/27 02:57:31;;;;;;;4.73;2.13;;;12.60;99.90;;;;;;932373;151;27495;-78
2023/10/27 02:59:58;;;;;;;4.57;2.10;;;12.60;99.90;;;;;;929798;152;27459;-76
2023/10/27 03:02:25;;;;;;;3.03;2.17;;;12.60;99.90;;;;;;927154;152;27359;-75
2023/10/27 03:04:53;;;;;;;5.63;2.40;;;12.60;99.90;;;;;;928431;151;27332;-75
2023/10/27 03:07:18;;;;;;;5.07;2.50;;;12.50;99.90;;;;;;931378;151;27388;-76
2023/10/27 03:09:44;;;;;;;2.33;2.00;;;12.50;99.90;;;;;;931214;151;27398;-75
2023/10/27 03:12:11;;;;;;;6.03;2.70;;;12.50;99.90;;;;;;928461;151;27460;-75
2023/10/27 03:14:37;;;;;;;4.50;2.50;;;12.50;99.90;;;;;;951164;148;27425;-75
2023/10/27 03:17:04;;;;;;;4.37;2.30;;;12.50;99.90;;;;;;937786;148;27348;-75
2023/10/27 03:19:30;;;;;;;2.80;2.30;;;12.50;99.90;;;;;;933660;151;27895;-76
2023/10/27 03:21:57;;;;;;;6.87;2.30;;;12.50;99.90;;;;;;933599;150;27401;-75
2023/10/27 03:24:24;;;;;;;6.37;2.37;;;12.60;99.90;;;;;;934077;151;27343;-76
2023/10/27 03:26:50;;;;;;;4.17;2.20;;;12.60;99.90;;;;;;934263;151;27486;-76
2023/10/27 03:29:18;;;;;;;5.77;2.73;;;12.60;99.90;;;;;;935253;151;27357;-75
2023/10/27 03:31:43;;;;;;;6.87;3.10;;;12.60;99.90;;;;;;933642;150;27366;-76
2023/10/27 03:34:10;;;;;;;5.10;2.30;;;12.60;99.90;;;;;;933933;151;27351;-76
2023/10/27 03:36:37;;;;;;;4.00;2.60;;;12.60;99.90;;;;;;934061;150;27295;-75
2023/10/27 03:39:03;;;;;;;7.80;2.52;;;12.60;99.90;;;;;;933636;151;27325;-76
2023/10/27 03:41:30;;;;;;;4.80;2.60;;;12.60;99.90;;;;;;933760;150;27974;-75
2023/10/27 03:43:56;;;;;;;5.22;2.65;;;12.60;99.90;;;;;;933816;151;27715;-75
2023/10/27 03:46:23;;;;;;;7.60;2.60;;;12.60;99.90;;;;;;934214;151;28028;-75
2023/10/27 03:48:50;;;;;;;4.00;2.90;;;12.70;99.90;;;;;;933655;151;27357;-75
2023/10/27 03:51:16;;;;;;;7.83;2.50;;;12.70;99.90;;;;;;934306;150;27437;-76
2023/10/27 03:53:43;;;;;;;5.77;2.50;;;12.70;99.90;;;;;;934197;150;27377;-76
2023/10/27 03:56:09;;;;;;;6.07;2.37;;;12.70;99.90;;;;;;934158;151;27371;-77
2023/10/27 03:58:36;;;;;;;6.47;2.72;;;12.80;99.90;;;;;;933808;151;27385;-75
2023/10/27 04:01:04;;;;;;;5.30;3.00;;;12.80;99.90;;;;;;934049;151;27396;-76
2023/10/27 04:03:31;;;;;;;7.60;2.92;;;12.80;99.90;;;;;;933758;151;27310;-76
2023/10/27 04:05:56;;;;;;;7.97;3.07;;;12.90;99.90;;;;;;934093;150;27426;-77
2023/10/27 04:08:22;;;;;;;6.40;2.80;;;12.90;99.90;;;;;;933512;151;27447;-76
2023/10/27 04:10:49;;;;;;;6.78;3.20;;;12.90;99.90;;;;;;933906;150;27414;-76
2023/10/27 04:13:15;;;;;;;4.00;2.70;;;13.00;99.90;;;;;;933947;151;27805;-75
2023/10/27 04:15:44;;;;;;;4.20;2.73;;;13.00;99.90;;;;;;934123;150;27358;-75
2023/10/27 04:18:09;;;;;;;8.77;4.20;;;13.00;99.90;;;;;;928026;151;27355;-75
2023/10/27 04:20:35;;;;;;;5.97;3.03;;;13.00;99.90;;;;;;926770;152;27375;-75
2023/10/27 04:23:02;;;;;;;3.17;2.80;;;13.00;99.90;;;;;;927912;151;27324;-75
2023/10/27 04:25:28;;;;;;;6.37;2.93;;;13.10;99.90;;;;;;927481;151;27447;-75
2023/10/27 04:27:55;;;;;;;5.03;2.58;;;13.10;99.90;;;;;;927999;152;27287;-75
2023/10/27 04:30:21;;;;;;;4.33;2.67;;;13.10;99.90;;;;;;927090;151;29449;-76
2023/10/27 04:32:48;;;;;;;3.40;2.80;;;13.10;99.90;;;;;;928085;152;27335;-76
2023/10/27 04:35:15;;;;;;;8.43;2.85;;;13.10;99.90;;;;;;927522;151;27476;-76
2023/10/27 04:37:41;;;;;;;4.80;2.90;;;13.20;99.90;;;;;;927836;152;27425;-76
2023/10/27 04:40:08;;;;;;;4.42;3.02;;;13.20;99.90;;;;;;927624;152;27393;-75
2023/10/27 04:42:35;;;;;;;5.57;2.93;;;13.20;99.90;;;;;;928206;151;27492;-75
2023/10/27 04:45:02;;;;;;;6.40;2.95;;;13.20;99.90;;;;;;927355;152;27476;-76
2023/10/27 04:47:28;;;;;;;4.97;2.63;;;13.20;99.90;;;;;;927423;152;27292;-76
2023/10/27 04:49:54;;;;;;;5.80;2.80;;;13.20;99.90;;;;;;927638;151;27475;-75
2023/10/27 04:52:21;;;;;;;5.40;2.77;;;13.20;99.90;;;;;;927710;152;27386;-75
2023/10/27 04:54:47;;;;;;;3.58;2.27;;;13.20;99.90;;;;;;927881;152;27316;-75
2023/10/27 04:57:14;;;;;;;4.92;2.95;;;13.30;99.90;;;;;;926943;152;27709;-75
2023/10/27 04:59:41;;;;;;;5.37;2.97;;;13.30;99.90;;;;;;927840;152;27449;-75
2023/10/27 05:02:07;;;;;;;4.17;3.07;;;13.30;99.90;;;;;;928120;151;27780;-75
2023/10/27 05:04:34;;;;;;;5.80;3.12;;;13.30;99.90;;;;;;927875;151;27380;-75
2023/10/27 05:07:00;;;;;;;5.30;2.80;;;13.30;99.90;;;;;;927597;152;27355;-76
2023/10/27 05:09:27;;;;;;;7.27;3.10;;;13.30;99.90;;;;;;927922;152;27397;-75
2023/10/27 05:11:54;;;;;;;6.05;3.08;;;13.30;99.90;;;;;;928128;152;27421;-75
2023/10/27 05:14:20;;;;;;;2.93;2.70;;;13.40;99.90;;;;;;928064;152;27378;-77
2023/10/27 05:16:47;;;;;;;4.00;2.57;;;13.40;99.90;;;;;;927014;151;27319;-77
2023/10/27 05:19:13;;;;;;;5.47;2.77;;;13.40;99.90;;;;;;925663;153;27424;-77
2023/10/27 05:21:40;;;;;;;6.58;2.42;;;13.40;99.90;;;;;;924065;153;27424;-77
2023/10/27 05:24:06;;;;;;;6.97;2.40;;;13.40;99.90;;;;;;923503;153;27479;-76
2023/10/27 05:26:33;;;;;;;5.30;3.03;;;13.40;99.90;;;;;;924331;153;27363;-74
2023/10/27 05:29:00;;;;;;;4.63;3.00;;;13.50;99.90;;;;;;925636;153;27497;-74
2023/10/27 05:31:26;;;;;;;4.22;2.80;;;13.40;99.90;;;;;;924448;153;27378;-74
2023/10/27 05:33:53;;;;;;;6.92;2.60;;;13.50;99.90;;;;;;924777;153;27394;-73
2023/10/27 05:36:19;;;;;;;6.10;3.35;;;13.50;99.90;;;;;;922592;153;27423;-75
2023/10/27 05:38:46;;;;;;;6.67;3.10;;;13.50;99.90;;;;;;925035;152;27365;-76
2023/10/27 05:41:14;;;;;;;5.63;3.17;;;13.50;99.90;;;;;;923718;152;27352;-75
2023/10/27 05:43:39;;;;;;;5.78;2.95;;;13.50;99.90;;;;;;925150;151;27414;-73
2023/10/27 05:46:06;;;;;;;5.00;2.80;;;13.50;99.90;;;;;;925614;153;27464;-74
2023/10/27 05:48:32;;;;;;;4.20;2.65;;;13.50;99.90;;;;;;923797;153;27932;-74
2023/10/27 05:50:59;;;;;;;5.20;3.00;;;13.50;99.90;;;;;;925703;150;27419;-74
2023/10/27 05:53:26;;;;;;;7.30;3.20;;;13.50;99.90;;;;;;923573;153;27402;-74
2023/10/27 05:55:52;;;;;;;3.73;2.93;;;13.50;99.90;;;;;;925086;153;27336;-77
2023/10/27 05:58:19;;;;;;;5.37;3.35;;;13.50;99.90;;;;;;924623;153;27485;-77
2023/10/27 06:00:46;;;;;;;5.00;3.13;;;13.50;99.90;;;;;;923376;153;27372;-76
2023/10/27 06:03:12;;;;;;;4.30;3.25;;;13.50;99.90;;;;;;924676;153;27488;-77
2023/10/27 06:05:38;;;;;;;5.57;3.10;;;13.50;99.90;;;;;;923853;153;27311;-75
2023/10/27 06:08:05;;;;;;;6.75;3.17;;;13.50;99.90;;;;;;924781;152;27445;-74
2023/10/27 06:10:32;;;;;;;5.62;3.00;;;13.50;99.90;;;;;;924687;152;27412;-74
2023/10/27 06:12:58;;;;;;;6.90;3.30;;;13.50;99.90;;;;;;923433;152;27333;-74
2023/10/27 06:15:25;;;;;;;6.23;3.07;;;13.50;99.90;;;;;;925402;152;27390;-73
2023/10/27 06:17:51;;;;;;;4.75;3.22;;;13.50;99.90;;;;;;925036;152;27397;-74
2023/10/27 06:20:18;;;;;;;8.00;3.37;;;13.50;99.90;;;;;;927811;152;27311;-74
2023/10/27 06:22:45;;;;;;;5.10;3.17;;;13.50;99.90;;;;;;927947;151;27371;-80
2023/10/27 06:25:11;;;;;;;4.50;3.25;;;13.50;99.90;;;;;;927872;151;27362;-80
2023/10/27 06:27:38;;;;;;;4.60;3.17;;;13.50;99.90;;;;;;928516;151;27287;-80
2023/10/27 06:30:04;;;;;;;8.10;3.22;;;13.50;99.90;;;;;;926884;152;27360;-81
2023/10/27 06:32:31;;;;;;;3.92;3.08;;;13.50;99.90;;;;;;928017;151;27328;-81
2023/10/27 06:34:58;;;;;;;5.00;3.30;;;13.50;99.90;;;;;;927873;152;27371;-76
2023/10/27 06:37:24;;;;;;;3.53;2.70;;;13.50;99.90;;;;;;927613;151;27423;-76
2023/10/27 06:39:54;;;;;;;4.67;2.85;;;13.50;99.90;;;;;;928053;151;27280;-76
2023/10/27 06:42:17;;;;;;;4.28;3.30;;;13.50;99.90;;;;;;926923;151;27411;-76
2023/10/27 06:44:44;;;;;;;7.45;3.42;;;13.60;99.90;;;;;;927334;151;27417;-75
2023/10/27 06:47:12;;;;;;;4.85;3.20;;;13.60;99.90;;;;;;927723;152;27395;-75
2023/10/27 06:49:37;;;;;;;4.33;2.90;;;13.60;99.90;;;;;;927421;152;27323;-76
2023/10/27 06:52:04;;;;;;;5.47;2.85;;;13.60;99.90;;;;;;927766;151;27342;-75
2023/10/27 06:54:32;;;;;;;6.00;3.40;;;13.60;99.90;;;;;;927861;151;27328;-76
2023/10/27 06:56:57;;;;;;;5.25;3.50;;;13.60;99.90;;;;;;927997;151;27425;-76
2023/10/27 06:59:24;;;;;;;3.90;2.90;;;13.70;99.90;;;;;;927653;151;27387;-75
2023/10/27 07:01:52;;;;;;;5.33;3.45;;;13.70;99.90;;;;;;927929;152;27420;-75
2023/10/27 07:04:17;;;;;;;4.45;2.77;;;13.70;99.90;;;;;;927171;151;27378;-75
2023/10/27 07:06:44;;;;;;;7.35;3.67;;;13.70;99.90;;;;;;928180;152;27359;-76
2023/10/27 07:09:10;;;;;;;5.00;3.60;;;13.70;99.90;;;;;;927815;151;27344;-76
2023/10/27 07:11:38;;;;;;;5.37;3.35;;;13.80;99.90;;;;;;927663;151;27373;-76
2023/10/27 07:14:03;;;;;;;4.60;3.30;;;13.80;99.90;;;;;;927647;152;27446;-75
2023/10/27 07:16:30;;;;;;;4.85;3.20;;;13.80;99.90;;;;;;927449;151;27471;-76
2023/10/27 07:18:56;;;;;;;5.03;3.15;;;13.80;99.90;;;;;;930258;151;27369;-76
2023/10/27 07:21:23;;;;;;;4.40;2.47;;;13.80;99.90;;;;;;934992;150;27447;-75
2023/10/27 07:23:49;;;;;;;4.40;2.87;;;13.80;99.90;;;;;;934973;150;27421;-75
2023/10/27 07:26:17;;;;;;;4.10;2.80;;;13.80;99.90;;;;;;935017;151;27776;-76
2023/10/27 07:28:43;;;;;;;4.35;3.20;;;13.90;99.90;;;;;;935391;151;27333;-75
2023/10/27 07:31:09;;;;;;;4.78;3.10;;;13.90;99.90;;;;;;935068;151;27439;-75
2023/10/27 07:33:38;;;;;;;3.80;2.77;;;13.90;99.90;;;;;;934728;151;27458;-74
2023/10/27 07:36:02;;;;;;;3.25;2.42;;;13.90;99.90;;;;;;934072;151;27332;-73
2023/10/27 07:38:30;;;;;;;2.70;2.50;;;13.90;99.90;;;;;;935182;150;27462;-74
2023/10/27 07:40:56;;;;;;;3.90;2.55;;;13.90;99.90;;;;;;934628;150;27631;-74
2023/10/27 07:43:22;;;;;;;3.00;2.70;;;13.90;99.90;;;;;;935140;150;27478;-80
2023/10/27 07:45:49;;;;;;;4.33;2.90;;;13.90;99.90;;;;;;935062;151;27395;-79
2023/10/27 07:48:15;;;;;;;3.10;2.37;;;13.90;99.90;;;;;;935491;150;27342;-76
2023/10/27 07:50:42;;;;;;;3.95;2.42;;;13.90;99.90;;;;;;935446;151;27442;-80
2023/10/27 07:53:09;;;;;;;4.75;2.17;;;13.90;99.90;;;;;;935351;151;27387;-83
2023/10/27 07:55:35;;;;;;;3.62;2.10;;;13.90;99.90;;;;;;935167;150;27294;-84
2023/10/27 07:58:04;;;;;;;3.02;2.02;;;13.90;99.90;;;;;;934803;151;27399;-82
2023/10/27 08:00:28;;;;;;;2.72;1.90;;;13.90;99.90;;;;;;934748;150;27455;-83
2023/10/27 08:02:55;;;;;;;3.35;2.10;;;13.90;99.90;;;;;;935276;150;27418;-82
2023/10/27 08:05:22;;;;;;;4.70;2.20;;;13.90;99.90;;;;;;935214;150;27395;-83
2023/10/27 08:07:48;;;;;;;3.72;2.47;;;14.00;99.90;;;;;;935383;150;27349;-78
2023/10/27 08:10:16;;;;;;;2.22;1.98;;;14.00;99.90;;;;;;934595;151;27522;-82
2023/10/27 08:12:41;;;;;;;2.45;2.10;;;14.00;99.90;;;;;;935039;151;27322;-84
2023/10/27 08:15:09;;;;;;;3.33;2.20;;;14.00;99.90;;;;;;935270;150;27356;-85
2023/10/27 08:17:34;;;;;;;2.20;2.00;;;14.00;99.90;;;;;;934656;150;27499;-84
2023/10/27 08:20:01;;;;;;;3.22;2.05;;;14.00;99.90;;;;;;932714;151;28050;-80
2023/10/27 08:22:28;;;;;;;3.67;1.80;;;14.10;99.90;;;;;;931957;151;27476;-83
2023/10/27 08:24:54;;;;;;;2.62;2.15;;;14.10;99.90;;;;;;931854;152;27463;-76
2023/10/27 08:27:22;;;;;;;2.17;1.98;;;14.00;99.90;;;;;;931578;151;27866;-84
2023/10/27 08:29:47;;;;;;;2.27;1.75;;;14.10;99.90;;;;;;931096;152;27454;-79
2023/10/27 08:32:14;;;;;;;3.45;2.10;;;14.10;99.90;;;;;;931103;151;27363;-76
2023/10/27 08:34:41;;;;;;;4.30;2.20;;;14.10;99.90;;;;;;932011;152;27420;-84
2023/10/27 08:37:07;;;;;;;3.58;2.08;;;14.10;99.90;;;;;;931815;152;27455;-82
2023/10/27 08:39:34;;;;;;;2.58;1.92;;;14.10;99.90;;;;;;931088;151;27335;-82
2023/10/27 08:42:00;;;;;;;2.25;1.80;;;14.20;99.90;;;;;;931049;151;27429;-81
2023/10/27 08:44:27;;;;;;;2.25;1.80;;;14.20;99.90;;;;;;931833;151;27405;-75
2023/10/27 08:46:53;;;;;;;2.72;1.87;;;14.20;99.90;;;;;;931902;152;27429;-74
2023/10/27 08:49:20;;;;;;;2.45;1.65;;;14.30;99.90;;;;;;931968;151;27468;-78
2023/10/27 08:51:47;;;;;;;2.42;1.57;;;14.30;99.90;;;;;;929997;151;27390;-74
2023/10/27 08:54:13;;;;;;;3.70;1.90;;;14.30;99.90;;;;;;931338;152;27428;-74
2023/10/27 08:56:40;;;;;;;1.77;1.35;;;14.30;99.90;;;;;;930289;152;27321;-73
2023/10/27 08:59:09;;;;;;;1.45;1.35;;;14.30;99.90;;;;;;931104;152;27372;-74
2023/10/27 09:01:33;;;;;;;2.20;1.50;;;14.30;99.90;;;;;;927863;151;27382;-73
2023/10/27 09:04:08;;;;;;;2.22;1.67;;;14.30;99.90;;;;;;930404;152;27378;-74
2023/10/27 09:06:35;;;;;;;2.47;1.70;;;14.30;99.90;;;;;;930522;151;27504;-75
2023/10/27 09:09:02;;;;;;;3.10;1.82;;;14.30;99.90;;;;;;931457;151;27394;-74
2023/10/27 09:11:28;;;;;;;4.08;1.80;;;14.20;99.90;;;;;;930704;151;27471;-74
2023/10/27 09:13:55;;;;;;;2.62;1.67;;;14.30;99.90;;;;;;930612;151;27370;-77
2023/10/27 09:16:21;;;;;;;3.08;1.67;;;14.30;99.90;;;;;;930529;152;27460;-76
2023/10/27 09:18:48;;;;;;;1.22;0.85;;;14.30;99.90;;;;;;929403;151;27365;-75
2023/10/27 09:21:15;;;;;;;1.35;1.10;;;14.30;99.90;;;;;;927990;151;28067;-75
2023/10/27 09:23:47;;;;;;;1.57;1.07;;;14.30;99.90;;;;;;929232;152;27354;-74
2023/10/27 09:26:14;;;;;;;1.22;1.12;;;14.30;99.90;;;;;;929548;152;27370;-75
2023/10/27 09:28:43;;;;;;;1.32;1.20;;;14.30;99.90;;;;;;929714;151;27323;-76
2023/10/27 09:31:07;;;;;;;1.27;1.10;;;14.30;99.90;;;;;;928557;150;27399;-75
2023/10/27 09:33:33;;;;;;;1.62;1.10;;;14.30;99.90;;;;;;928526;151;27378;-74
2023/10/27 09:36:02;;;;;;;1.20;1.10;;;14.30;99.90;;;;;;930314;152;27437;-76
2023/10/27 09:38:27;;;;;;;1.92;1.40;;;14.30;99.90;;;;;;928766;152;27946;-74
2023/10/27 09:40:53;;;;;;;1.12;1.10;;;14.30;99.90;;;;;;929252;152;27311;-75
2023/10/27 09:43:20;;;;;;;2.08;1.50;;;14.30;99.90;;;;;;928912;151;27525;-74
2023/10/27 09:45:53;;;;;;;3.12;1.87;;;14.30;99.90;;;;;;928696;152;27336;-73
2023/10/27 09:48:18;;;;;;;1.65;1.55;;;14.30;99.90;;;;;;928180;152;27389;-73
2023/10/27 09:50:45;;;;;;;1.70;1.60;;;14.20;99.90;;;;;;928041;151;27707;-75
2023/10/27 09:53:11;;;;;;;2.92;1.67;;;14.20;99.90;;;;;;930132;151;28601;-83
2023/10/27 09:55:38;;;;;;;3.02;1.80;;;14.20;99.90;;;;;;929888;152;27356;-79
2023/10/27 09:58:05;;;;;;;2.33;1.50;;;14.20;99.90;;;;;;929677;151;27337;-81
2023/10/27 10:00:31;;;;;;;1.60;1.50;;;14.20;99.90;;;;;;930237;152;27432;-79
2023/10/27 10:02:58;;;;;;;2.20;1.50;;;14.20;99.90;;;;;;929035;151;27286;-77
2023/10/27 10:05:24;;;;;;;1.45;1.40;;;14.20;99.90;;;;;;929007;151;27319;-77
2023/10/27 10:08:00;;;;;;;1.60;1.50;;;14.30;99.90;;;;;;930884;151;27647;-77
2023/10/27 10:10:35;;;;;;;1.52;1.42;;;14.30;99.90;;;;;;929837;152;27461;-77
2023/10/27 10:13:12;;;;;;;1.20;1.10;;;14.30;99.90;;;;;;930171;151;27445;-77
2023/10/27 10:15:36;;;;;;;1.05;1.05;;;14.30;99.90;;;;;;929608;152;27391;-77
2023/10/27 10:18:06;;;;;;;1.37;1.17;;;14.40;99.90;;;;;;931535;152;27495;-77
2023/10/27 10:20:47;;;;;;;1.42;1.27;;;14.40;99.90;;;;;;928874;151;27445;-77
2023/10/27 10:23:11;;;;;;;0.90;0.90;;;14.40;99.90;;;;;;923581;151;27303;-77
2023/10/27 10:25:38;;;;;;;1.50;0.80;;;14.40;99.90;;;;;;930977;152;27366;-77
2023/10/27 10:28:10;;;;;;;1.10;0.98;;;14.50;99.90;;;;;;928615;151;27367;-77
2023/10/27 10:30:36;;;;;;;0.80;0.80;;;14.50;99.90;;;;;;928593;152;28095;-77
2023/10/27 10:33:15;;;;;;;1.02;0.80;;;14.50;99.90;;;;;;926923;150;27352;-77
2023/10/27 10:35:41;;;;;;;0.70;0.62;;;14.60;99.90;;;;;;930516;152;27359;-77
2023/10/27 10:38:23;;;;;;;0.70;0.70;;;14.60;99.90;;;;;;931270;151;27356;-77
2023/10/27 10:40:49;;;;;;;1.47;1.12;;;14.70;99.90;;;;;;930242;151;27471;-77
2023/10/27 10:43:26;;;;;;;1.10;1.10;;;14.70;99.90;;;;;;930402;151;27464;-77
2023/10/27 10:45:57;;;;;;;1.00;1.00;;;14.80;99.90;;;;;;930117;151;28516;-77
2023/10/27 10:48:27;;;;;;;1.07;1.07;;;15.00;99.90;;;;;;931521;152;27348;-77
2023/10/27 10:50:51;;;;;;;2.77;1.12;;;15.10;99.90;;;;;;929074;151;27329;-77
2023/10/27 10:53:17;;;;;;;1.52;1.10;;;15.20;99.90;;;;;;929716;151;27336;-77
2023/10/27 10:55:45;;;;;;;1.00;1.00;;;15.40;99.90;;;;;;928882;151;27330;-77
2023/10/27 10:58:10;;;;;;;1.30;1.25;;;15.50;99.90;;;;;;929033;151;27307;-77
2023/10/27 11:00:37;;;;;;;1.07;0.72;;;15.70;99.90;;;;;;929297;151;27475;-77
2023/10/27 11:03:06;;;;;;;0.55;0.55;;;15.90;99.90;;;;;;930223;152;27881;-77
2023/10/27 11:05:33;;;;;;;2.67;1.27;;;16.10;99.90;;;;;;929531;151;27456;-77
2023/10/27 11:08:00;;;;;;;0.82;0.82;;;16.20;99.90;;;;;;929273;152;27447;-78
2023/10/27 11:10:26;;;;;;;0.80;0.80;;;16.30;99.90;;;;;;929458;151;27417;-77
2023/10/27 11:12:53;;;;;;;0.70;0.70;;;16.40;99.90;;;;;;930267;152;27316;-82
2023/10/27 11:15:41;;;;;;;0.78;0.78;;;16.40;99.90;;;;;;930570;151;27268;-84
2023/10/27 11:18:07;;;;;;;0.62;0.62;;;16.50;99.90;;;;;;928981;152;27462;-80
2023/10/27 11:20:40;;;;;;;0.70;0.70;;;16.60;99.90;;;;;;928726;151;27726;-81
2023/10/27 11:23:09;;;;;;;0.60;0.60;;;16.60;99.90;;;;;;917731;153;27462;-83
2023/10/27 11:25:36;;;;;;;0.45;0.42;;;16.60;99.90;;;;;;917831;153;27412;-82
2023/10/27 11:28:23;;;;;;;0.80;0.80;;;16.60;99.90;;;;;;917987;153;27396;-82
2023/10/27 11:31:15;;;;;;;0.85;0.60;;;16.60;99.90;;;;;;917289;153;27421;-81
2023/10/27 11:34:03;;;;;;;2.83;1.00;;;16.60;99.90;;;;;;916302;151;27458;-83
2023/10/27 11:36:42;;;;;;;0.98;0.90;;;16.60;99.90;;;;;;915933;152;27490;-83
2023/10/27 11:39:19;;;;;;;0.50;0.50;;;16.60;99.90;;;;;;939705;148;27381;-82
2023/10/27 11:41:51;;;;;;;2.12;0.90;;;16.60;99.90;;;;;;937923;148;27265;-84
2023/10/27 11:44:18;;;;;;;0.80;0.80;;;16.70;99.90;;;;;;937762;148;27296;-82
2023/10/27 11:46:53;;;;;;;0.90;0.82;;;16.80;99.90;;;;;;912734;154;27357;-79
2023/10/27 11:49:19;;;;;;;0.65;0.65;;;16.90;99.90;;;;;;937967;148;27241;-82
2023/10/27 11:51:46;;;;;;;1.32;1.10;;;17.10;99.90;;;;;;938630;148;27297;-81
2023/10/27 11:54:12;;;;;;;0.60;0.60;;;17.20;99.90;;;;;;938656;148;27403;-82
2023/10/27 11:56:39;;;;;;;0.50;0.50;;;17.30;99.90;;;;;;936896;148;27411;-82
2023/10/27 11:59:06;;;;;;;0.60;0.60;;;17.40;99.90;;;;;;938126;148;27767;-84
2023/10/27 12:01:32;;;;;;;0.80;0.75;;;17.50;99.90;;;;;;938636;148;27338;-77
2023/10/27 12:03:59;;;;;;;0.53;0.53;;;17.60;99.90;;;;;;920621;152;27375;-77
2023/10/27 12:06:26;;;;;;;0.82;0.62;;;17.70;99.90;;;;;;920384;152;27400;-83
2023/10/27 12:08:52;;;;;;;1.02;0.70;;;17.80;99.90;;;;;;912569;154;27389;-81
2023/10/27 12:11:20;;;;;;;2.42;0.72;;;17.80;99.90;;;;;;912863;154;27460;-83
2023/10/27 12:13:45;;;;;;;0.93;0.72;;;17.90;99.90;;;;;;912086;154;27353;-82
2023/10/27 12:16:12;;;;;;;0.93;0.78;;;18.00;99.90;;;;;;912856;154;27348;-80
2023/10/27 12:18:38;;;;;;;2.35;0.70;;;18.10;99.90;;;;;;912409;154;27491;-80
2023/10/27 12:21:05;;;;;;;0.82;0.75;;;18.20;99.90;;;;;;912105;154;27469;-85
2023/10/27 12:23:32;;;;;;;1.15;0.80;;;18.30;99.90;;;;;;937108;150;27393;-85
2023/10/27 12:25:58;;;;;;;2.17;1.40;;;18.40;99.90;;;;;;939402;150;27328;-84
2023/10/27 12:28:27;;;;;;;0.98;0.85;;;18.50;99.90;;;;;;938883;150;27329;-80
2023/10/27 12:30:51;;;;;;;3.62;1.98;;;18.60;99.90;;;;;;928507;151;27464;-83
2023/10/27 12:33:19;;;;;;;1.47;1.00;;;18.60;99.90;;;;;;947966;149;27385;-77
2023/10/27 12:35:45;;;;;;;1.57;0.70;;;18.70;99.90;;;;;;931168;151;27479;-82
2023/10/27 12:38:11;;;;;;;1.42;0.70;;;18.70;99.90;;;;;;924780;151;27512;-85
2023/10/27 12:40:38;;;;;;;1.25;1.02;;;18.70;99.90;;;;;;947267;148;27368;-82
2023/10/27 12:43:05;;;;;;;1.52;0.93;;;18.70;99.90;;;;;;931975;151;27522;-82
2023/10/27 12:45:32;;;;;;;2.75;0.80;;;18.70;99.90;;;;;;949303;149;27280;-84
2023/10/27 12:47:57;;;;;;;1.20;1.00;;;18.60;99.90;;;;;;923001;151;27355;-84